sensor_id;sensor_type;location;lat;lon;timestamp;pressure;altitude;pressure_sealevel;temperature;humidity
42591;BME280;28218;53.342;-6.216;2024-02-16T00:00:24;100333.94;;;10.74;100.00
42591;BME280;28218;53.342;-6.216;2024-02-16T00:02:53;100332.66;;;10.70;100.00
42591;BME280;28218;53.342;-6.216;2024-02-16T00:05:21;100340.56;;;10.70;100.00
42591;BME280;28218;53.342;-6.216;2024-02-16T00:07:49;100334.81;;;10.66;100.00
42591;BME280;28218;53.342;-6.216;2024-02-16T00:10:19;100336.63;;;10.66;100.00
42591;BME280;28218;53.342;-6.216;2024-02-16T00:12:48;100345.19;;;10.68;100.00
42591;BME280;28218;53.342;-6.216;2024-02-16T00:15:17;100340.75;;;10.68;100.00
42591;BME280;28218;53.342;-6.216;2024-02-16T00:17:45;100343.72;;;10.65;100.00
42591;BME280;28218;53.342;-6.216;2024-02-16T00:20:14;100341.91;;;10.66;100.00
42591;BME280;28218;53.342;-6.216;2024-02-16T00:22:42;100343.91;;;10.64;100.00
42591;BME280;28218;53.342;-6.216;2024-02-16T00:25:10;100347.38;;;10.64;100.00
42591;BME280;28218;53.342;-6.216;2024-02-16T00:27:41;100349.81;;;10.66;100.00
42591;BME280;28218;53.342;-6.216;2024-02-16T00:30:10;100347.38;;;10.64;100.00
42591;BME280;28218;53.342;-6.216;2024-02-16T00:32:38;100352.44;;;10.66;100.00
42591;BME280;28218;53.342;-6.216;2024-02-16T00:35:07;100355.91;;;10.66;100.00
42591;BME280;28218;53.342;-6.216;2024-02-16T00:37:35;100358.81;;;10.71;100.00
42591;BME280;28218;53.342;-6.216;2024-02-16T00:40:05;100364.28;;;10.70;100.00
42591;BME280;28218;53.342;-6.216;2024-02-16T00:42:34;100360.44;;;10.72;100.00
42591;BME280;28218;53.342;-6.216;2024-02-16T00:45:06;100364.22;;;10.78;100.00
42591;BME280;28218;53.342;-6.216;2024-02-16T00:47:35;100364.22;;;10.78;100.00
42591;BME280;28218;53.342;-6.216;2024-02-16T00:50:04;100357.13;;;10.79;100.00
42591;BME280;28218;53.342;-6.216;2024-02-16T00:52:35;100368.50;;;10.79;100.00
42591;BME280;28218;53.342;-6.216;2024-02-16T00:55:04;100369.50;;;10.78;100.00
42591;BME280;28218;53.342;-6.216;2024-02-16T00:57:33;100369.50;;;10.78;100.00
42591;BME280;28218;53.342;-6.216;2024-02-16T01:00:01;100369.50;;;10.78;100.00
42591;BME280;28218;53.342;-6.216;2024-02-16T01:02:32;100375.72;;;10.77;100.00
42591;BME280;28218;53.342;-6.216;2024-02-16T01:05:00;100377.22;;;10.80;100.00
42591;BME280;28218;53.342;-6.216;2024-02-16T01:07:30;100377.84;;;10.82;100.00
42591;BME280;28218;53.342;-6.216;2024-02-16T01:09:59;100384.09;;;10.81;100.00
42591;BME280;28218;53.342;-6.216;2024-02-16T01:12:30;100375.19;;;10.82;100.00
42591;BME280;28218;53.342;-6.216;2024-02-16T01:14:59;100385.75;;;10.82;100.00
42591;BME280;28218;53.342;-6.216;2024-02-16T01:17:28;100378.50;;;10.84;100.00
42591;BME280;28218;53.342;-6.216;2024-02-16T01:20:00;100382.94;;;10.83;100.00
42591;BME280;28218;53.342;-6.216;2024-02-16T01:22:31;100375.66;;;10.85;100.00
42591;BME280;28218;53.342;-6.216;2024-02-16T01:24:59;100379.94;;;10.86;100.00
42591;BME280;28218;53.342;-6.216;2024-02-16T01:27:27;100381.75;;;10.86;100.00
42591;BME280;28218;53.342;-6.216;2024-02-16T01:29:56;100391.66;;;10.84;100.00
42591;BME280;28218;53.342;-6.216;2024-02-16T01:32:23;100385.75;;;10.82;100.00
42591;BME280;28218;53.342;-6.216;2024-02-16T01:34:52;100383.09;;;10.82;100.00
42591;BME280;28218;53.342;-6.216;2024-02-16T01:37:22;100387.13;;;10.78;100.00
42591;BME280;28218;53.342;-6.216;2024-02-16T01:39:50;100385.66;;;10.75;100.00
42591;BME280;28218;53.342;-6.216;2024-02-16T01:42:18;100380.72;;;10.72;100.00
42591;BME280;28218;53.342;-6.216;2024-02-16T01:44:46;100386.19;;;10.70;100.00
42591;BME280;28218;53.342;-6.216;2024-02-16T01:47:15;100379.09;;;10.71;100.00
42591;BME280;28218;53.342;-6.216;2024-02-16T01:49:44;100379.28;;;10.69;100.00
42591;BME280;28218;53.342;-6.216;2024-02-16T01:52:13;100384.34;;;10.71;100.00
42591;BME280;28218;53.342;-6.216;2024-02-16T01:54:43;100381.91;;;10.69;100.00
42591;BME280;28218;53.342;-6.216;2024-02-16T01:57:11;100382.91;;;10.68;100.00
42591;BME280;28218;53.342;-6.216;2024-02-16T01:59:41;100380.63;;;10.65;100.00
42591;BME280;28218;53.342;-6.216;2024-02-16T02:02:09;100375.81;;;10.69;100.00
42591;BME280;28218;53.342;-6.216;2024-02-16T02:04:37;100378.63;;;10.67;100.00
42591;BME280;28218;53.342;-6.216;2024-02-16T02:07:11;100380.28;;;10.68;100.00
42591;BME280;28218;53.342;-6.216;2024-02-16T02:09:40;100384.53;;;10.69;100.00
42591;BME280;28218;53.342;-6.216;2024-02-16T02:12:10;100384.34;;;10.71;100.00
42591;BME280;28218;53.342;-6.216;2024-02-16T02:14:38;100383.44;;;10.64;100.00
42591;BME280;28218;53.342;-6.216;2024-02-16T02:17:06;100388.72;;;10.64;100.00
42591;BME280;28218;53.342;-6.216;2024-02-16T02:19:35;100385.06;;;10.65;100.00
42591;BME280;28218;53.342;-6.216;2024-02-16T02:22:04;100382.63;;;10.63;100.00
42591;BME280;28218;53.342;-6.216;2024-02-16T02:24:34;100388.72;;;10.64;100.00
42591;BME280;28218;53.342;-6.216;2024-02-16T02:27:02;100385.88;;;10.65;100.00
42591;BME280;28218;53.342;-6.216;2024-02-16T02:29:31;100393.97;;;10.64;100.00
42591;BME280;28218;53.342;-6.216;2024-02-16T02:32:00;100389.53;;;10.64;100.00
42591;BME280;28218;53.342;-6.216;2024-02-16T02:34:28;100394.78;;;10.64;100.00
42591;BME280;28218;53.342;-6.216;2024-02-16T02:36:57;100390.34;;;10.65;100.00
42591;BME280;28218;53.342;-6.216;2024-02-16T02:39:25;100392.78;;;10.66;100.00
42591;BME280;28218;53.342;-6.216;2024-02-16T02:41:55;100389.00;;;10.69;100.00
42591;BME280;28218;53.342;-6.216;2024-02-16T02:44:24;100397.88;;;10.68;100.00
42591;BME280;28218;53.342;-6.216;2024-02-16T02:46:53;100391.97;;;10.66;100.00
42591;BME280;28218;53.342;-6.216;2024-02-16T02:49:21;100408.97;;;10.63;100.00
42591;BME280;28218;53.342;-6.216;2024-02-16T02:51:49;100408.78;;;10.65;100.00
42591;BME280;28218;53.342;-6.216;2024-02-16T02:54:18;100414.06;;;10.65;100.00
42591;BME280;28218;53.342;-6.216;2024-02-16T02:56:46;100408.78;;;10.65;100.00
42591;BME280;28218;53.342;-6.216;2024-02-16T02:59:16;100409.88;;;10.70;100.00
42591;BME280;28218;53.342;-6.216;2024-02-16T03:01:44;100406.09;;;10.73;100.00
42591;BME280;28218;53.342;-6.216;2024-02-16T03:04:12;100414.63;;;10.75;100.00
42591;BME280;28218;53.342;-6.216;2024-02-16T03:06:41;100410.84;;;10.78;100.00
42591;BME280;28218;53.342;-6.216;2024-02-16T03:09:10;100416.94;;;10.78;100.00
42591;BME280;28218;53.342;-6.216;2024-02-16T03:11:39;100417.56;;;10.80;100.00
42591;BME280;28218;53.342;-6.216;2024-02-16T03:14:07;100419.84;;;10.83;100.00
42591;BME280;28218;53.342;-6.216;2024-02-16T03:16:36;100425.75;;;10.85;100.00
42591;BME280;28218;53.342;-6.216;2024-02-16T03:19:06;100430.50;;;10.90;100.00
42591;BME280;28218;53.342;-6.216;2024-02-16T03:21:36;100427.66;;;10.91;100.00
42591;BME280;28218;53.342;-6.216;2024-02-16T03:24:04;100428.66;;;10.90;100.00
42591;BME280;28218;53.342;-6.216;2024-02-16T03:26:33;100432.31;;;10.89;100.00
42591;BME280;28218;53.342;-6.216;2024-02-16T03:29:01;100434.75;;;10.91;100.00
42591;BME280;28218;53.342;-6.216;2024-02-16T03:31:30;100435.75;;;10.90;100.00
42591;BME280;28218;53.342;-6.216;2024-02-16T03:34:00;100440.03;;;10.91;100.00
42591;BME280;28218;53.342;-6.216;2024-02-16T03:36:28;100437.41;;;10.91;100.00
42591;BME280;28218;53.342;-6.216;2024-02-16T03:38:57;100445.31;;;10.91;100.00
42591;BME280;28218;53.342;-6.216;2024-02-16T03:41:26;100443.66;;;10.90;100.00
42591;BME280;28218;53.342;-6.216;2024-02-16T03:43:54;100446.97;;;10.92;100.00
42591;BME280;28218;53.342;-6.216;2024-02-16T03:46:24;100449.59;;;10.92;100.00
42591;BME280;28218;53.342;-6.216;2024-02-16T03:48:52;100452.41;;;10.90;100.00
42591;BME280;28218;53.342;-6.216;2024-02-16T03:51:23;100454.41;;;10.88;100.00
42591;BME280;28218;53.342;-6.216;2024-02-16T03:53:51;100458.84;;;10.88;100.00
42591;BME280;28218;53.342;-6.216;2024-02-16T03:56:19;100461.31;;;10.89;100.00
42591;BME280;28218;53.342;-6.216;2024-02-16T03:58:48;100462.13;;;10.90;100.00
42591;BME280;28218;53.342;-6.216;2024-02-16T04:01:16;100455.84;;;10.91;100.00
42591;BME280;28218;53.342;-6.216;2024-02-16T04:03:44;100458.31;;;10.92;100.00
42591;BME280;28218;53.342;-6.216;2024-02-16T04:06:13;100462.41;;;10.95;100.00
42591;BME280;28218;53.342;-6.216;2024-02-16T04:08:43;100466.88;;;10.94;100.00
42591;BME280;28218;53.342;-6.216;2024-02-16T04:11:11;100468.50;;;10.95;100.00
42591;BME280;28218;53.342;-6.216;2024-02-16T04:13:42;100471.13;;;10.95;100.00
42591;BME280;28218;53.342;-6.216;2024-02-16T04:16:10;100466.53;;;10.97;100.00
42591;BME280;28218;53.342;-6.216;2024-02-16T04:18:38;100470.97;;;10.97;100.00
42591;BME280;28218;53.342;-6.216;2024-02-16T04:21:07;100470.16;;;10.96;100.00
42591;BME280;28218;53.342;-6.216;2024-02-16T04:23:35;100482.34;;;10.97;100.00
42591;BME280;28218;53.342;-6.216;2024-02-16T04:26:05;100478.06;;;10.96;100.00
42591;BME280;28218;53.342;-6.216;2024-02-16T04:28:34;100476.06;;;10.98;100.00
42591;BME280;28218;53.342;-6.216;2024-02-16T04:31:02;100479.53;;;10.99;100.00
42591;BME280;28218;53.342;-6.216;2024-02-16T04:33:30;100479.19;;;11.02;100.00
42591;BME280;28218;53.342;-6.216;2024-02-16T04:35:59;100492.34;;;11.02;100.00
42591;BME280;28218;53.342;-6.216;2024-02-16T04:38:27;100500.59;;;10.99;100.00
42591;BME280;28218;53.342;-6.216;2024-02-16T04:40:55;100503.97;;;10.93;100.00
42591;BME280;28218;53.342;-6.216;2024-02-16T04:43:25;100494.56;;;10.90;100.00
42591;BME280;28218;53.342;-6.216;2024-02-16T04:45:53;100502.84;;;10.87;100.00
42591;BME280;28218;53.342;-6.216;2024-02-16T04:48:22;100499.38;;;10.87;100.00
42591;BME280;28218;53.342;-6.216;2024-02-16T04:50:50;100499.38;;;10.87;100.00
42591;BME280;28218;53.342;-6.216;2024-02-16T04:53:19;100501.38;;;10.85;100.00
42591;BME280;28218;53.342;-6.216;2024-02-16T04:55:47;100506.16;;;10.81;100.00
42591;BME280;28218;53.342;-6.216;2024-02-16T04:58:16;100509.97;;;10.79;100.00
42591;BME280;28218;53.342;-6.216;2024-02-16T05:00:46;100515.41;;;10.77;100.00
42591;BME280;28218;53.342;-6.216;2024-02-16T05:03:15;100510.13;;;10.77;100.00
42591;BME280;28218;53.342;-6.216;2024-02-16T05:05:43;100512.16;;;10.75;100.00
42591;BME280;28218;53.342;-6.216;2024-02-16T05:08:12;100519.41;;;10.73;100.00
42591;BME280;28218;53.342;-6.216;2024-02-16T05:10:40;100526.31;;;10.74;100.00
42591;BME280;28218;53.342;-6.216;2024-02-16T05:13:09;100524.69;;;10.73;100.00
42591;BME280;28218;53.342;-6.216;2024-02-16T05:15:39;100526.47;;;10.72;100.00
42591;BME280;28218;53.342;-6.216;2024-02-16T05:18:09;100520.38;;;10.72;100.00
42591;BME280;28218;53.342;-6.216;2024-02-16T05:20:40;100534.56;;;10.71;100.00
42591;BME280;28218;53.342;-6.216;2024-02-16T05:23:08;100545.28;;;10.69;100.00
42591;BME280;28218;53.342;-6.216;2024-02-16T05:25:37;100536.56;;;10.69;100.00
42591;BME280;28218;53.342;-6.216;2024-02-16T05:28:05;100549.06;;;10.67;100.00
42591;BME280;28218;53.342;-6.216;2024-02-16T05:30:34;100551.72;;;10.67;100.00
42591;BME280;28218;53.342;-6.216;2024-02-16T05:33:02;100558.28;;;10.71;100.00
42591;BME280;28218;53.342;-6.216;2024-02-16T05:35:32;100565.53;;;10.69;100.00
42591;BME280;28218;53.342;-6.216;2024-02-16T05:38:01;100563.88;;;10.68;100.00
42591;BME280;28218;53.342;-6.216;2024-02-16T05:40:34;100570.16;;;10.67;100.00
42591;BME280;28218;53.342;-6.216;2024-02-16T05:43:12;100571.16;;;10.66;100.00
42591;BME280;28218;53.342;-6.216;2024-02-16T05:45:40;100574.59;;;10.66;100.00
42591;BME280;28218;53.342;-6.216;2024-02-16T05:48:08;100578.88;;;10.67;100.00
42591;BME280;28218;53.342;-6.216;2024-02-16T05:50:39;100577.72;;;10.70;100.00
42591;BME280;28218;53.342;-6.216;2024-02-16T05:53:07;100581.34;;;10.69;100.00
42591;BME280;28218;53.342;-6.216;2024-02-16T05:55:37;100586.03;;;10.59;100.00
42591;BME280;28218;53.342;-6.216;2024-02-16T05:58:05;100584.03;;;10.61;100.00
42591;BME280;28218;53.342;-6.216;2024-02-16T06:00:34;100585.34;;;10.57;100.00
42591;BME280;28218;53.342;-6.216;2024-02-16T06:03:02;100589.16;;;10.54;100.00
42591;BME280;28218;53.342;-6.216;2024-02-16T06:05:30;100594.78;;;10.51;100.00
42591;BME280;28218;53.342;-6.216;2024-02-16T06:08:01;100602.66;;;10.51;100.00
42591;BME280;28218;53.342;-6.216;2024-02-16T06:10:30;100594.94;;;10.49;100.00
42591;BME280;28218;53.342;-6.216;2024-02-16T06:12:58;100591.66;;;10.47;100.00
42591;BME280;28218;53.342;-6.216;2024-02-16T06:15:26;100599.91;;;10.44;100.00
42591;BME280;28218;53.342;-6.216;2024-02-16T06:17:56;100589.69;;;10.41;100.00
42591;BME280;28218;53.342;-6.216;2024-02-16T06:20:24;100588.88;;;10.41;100.00
42591;BME280;28218;53.342;-6.216;2024-02-16T06:22:52;100598.94;;;10.37;100.00
42591;BME280;28218;53.342;-6.216;2024-02-16T06:25:22;100601.91;;;10.34;100.00
42591;BME280;28218;53.342;-6.216;2024-02-16T06:27:50;100604.53;;;10.34;100.00
42591;BME280;28218;53.342;-6.216;2024-02-16T06:30:19;100607.00;;;10.36;100.00
42591;BME280;28218;53.342;-6.216;2024-02-16T06:32:47;100621.00;;;10.36;100.00
42591;BME280;28218;53.342;-6.216;2024-02-16T06:35:16;100613.09;;;10.36;100.00
42591;BME280;28218;53.342;-6.216;2024-02-16T06:37:44;100617.53;;;10.36;100.00
42591;BME280;28218;53.342;-6.216;2024-02-16T06:40:12;100626.09;;;10.38;100.00
42591;BME280;28218;53.342;-6.216;2024-02-16T06:42:42;100625.44;;;10.36;100.00
42591;BME280;28218;53.342;-6.216;2024-02-16T06:45:11;100622.00;;;10.35;100.00
42591;BME280;28218;53.342;-6.216;2024-02-16T06:47:39;100622.00;;;10.35;100.00
42591;BME280;28218;53.342;-6.216;2024-02-16T06:50:08;100622.63;;;10.37;100.00
42591;BME280;28218;53.342;-6.216;2024-02-16T06:52:36;100623.63;;;10.36;100.00
42591;BME280;28218;53.342;-6.216;2024-02-16T06:55:05;100624.13;;;10.40;100.00
42591;BME280;28218;53.342;-6.216;2024-02-16T06:57:38;100629.38;;;10.40;100.00
42591;BME280;28218;53.342;-6.216;2024-02-16T07:00:12;100632.34;;;10.45;100.00
42591;BME280;28218;53.342;-6.216;2024-02-16T07:02:42;100626.88;;;10.46;100.00
42591;BME280;28218;53.342;-6.216;2024-02-16T07:05:11;100636.44;;;10.47;100.00
42591;BME280;28218;53.342;-6.216;2024-02-16T07:07:40;100646.97;;;10.47;100.00
42591;BME280;28218;53.342;-6.216;2024-02-16T07:10:08;100651.41;;;10.47;100.00
42591;BME280;28218;53.342;-6.216;2024-02-16T07:12:40;100642.50;;;10.48;100.00
42591;BME280;28218;53.342;-6.216;2024-02-16T07:15:10;100654.22;;;10.45;100.00
42591;BME280;28218;53.342;-6.216;2024-02-16T07:17:39;100654.88;;;10.39;100.00
42591;BME280;28218;53.342;-6.216;2024-02-16T07:20:08;100658.19;;;10.41;100.00
42591;BME280;28218;53.342;-6.216;2024-02-16T07:22:36;100661.31;;;10.45;100.00
42591;BME280;28218;53.342;-6.216;2024-02-16T07:25:05;100668.41;;;10.44;100.00
42591;BME280;28218;53.342;-6.216;2024-02-16T07:27:34;100671.19;;;10.43;100.00
42591;BME280;28218;53.342;-6.216;2024-02-16T07:30:04;100673.50;;;10.46;100.00
42591;BME280;28218;53.342;-6.216;2024-02-16T07:32:34;100673.31;;;10.47;100.00
42591;BME280;28218;53.342;-6.216;2024-02-16T07:35:03;100683.66;;;10.49;100.00
42591;BME280;28218;53.342;-6.216;2024-02-16T07:37:32;100690.28;;;10.45;100.00
42591;BME280;28218;53.342;-6.216;2024-02-16T07:40:00;100696.06;;;10.40;100.00
42591;BME280;28218;53.342;-6.216;2024-02-16T07:42:29;100695.38;;;10.38;100.00
42591;BME280;28218;53.342;-6.216;2024-02-16T07:44:57;100698.69;;;10.40;100.00
42591;BME280;28218;53.342;-6.216;2024-02-16T07:47:25;100702.78;;;10.43;100.00
42591;BME280;28218;53.342;-6.216;2024-02-16T07:49:56;100705.41;;;10.43;100.00
42591;BME280;28218;53.342;-6.216;2024-02-16T07:52:24;100709.06;;;10.42;100.00
42591;BME280;28218;53.342;-6.216;2024-02-16T07:54:53;100718.44;;;10.44;100.00
42591;BME280;28218;53.342;-6.216;2024-02-16T07:57:22;100708.88;;;10.43;100.00
42591;BME280;28218;53.342;-6.216;2024-02-16T07:59:50;100712.50;;;10.42;100.00
42591;BME280;28218;53.342;-6.216;2024-02-16T08:02:19;100717.13;;;10.40;100.00
42591;BME280;28218;53.342;-6.216;2024-02-16T08:04:47;100717.44;;;10.37;100.00
42591;BME280;28218;53.342;-6.216;2024-02-16T08:07:17;100731.94;;;10.41;100.00
42591;BME280;28218;53.342;-6.216;2024-02-16T08:09:46;100735.06;;;10.45;100.00
42591;BME280;28218;53.342;-6.216;2024-02-16T08:12:15;100728.31;;;10.51;100.00
42591;BME280;28218;53.342;-6.216;2024-02-16T08:14:43;100728.31;;;10.51;100.00
42591;BME280;28218;53.342;-6.216;2024-02-16T08:17:13;100727.31;;;10.52;100.00
42591;BME280;28218;53.342;-6.216;2024-02-16T08:19:52;100740.16;;;10.55;100.00
42591;BME280;28218;53.342;-6.216;2024-02-16T08:22:22;100742.78;;;10.55;100.00
42591;BME280;28218;53.342;-6.216;2024-02-16T08:24:50;100749.38;;;10.59;100.00
42591;BME280;28218;53.342;-6.216;2024-02-16T08:27:19;100753.47;;;10.61;100.00
42591;BME280;28218;53.342;-6.216;2024-02-16T08:29:48;100763.19;;;10.61;100.00
42591;BME280;28218;53.342;-6.216;2024-02-16T08:32:16;100756.94;;;10.62;100.00
42591;BME280;28218;53.342;-6.216;2024-02-16T08:34:44;100759.41;;;10.63;100.00
42591;BME280;28218;53.342;-6.216;2024-02-16T08:37:16;100755.94;;;10.63;100.00
42591;BME280;28218;53.342;-6.216;2024-02-16T08:39:47;100764.50;;;10.65;100.00
42591;BME280;28218;53.342;-6.216;2024-02-16T08:42:16;100764.50;;;10.65;100.00
42591;BME280;28218;53.342;-6.216;2024-02-16T08:44:44;100770.41;;;10.67;100.00
42591;BME280;28218;53.342;-6.216;2024-02-16T08:47:12;100768.78;;;10.66;100.00
42591;BME280;28218;53.342;-6.216;2024-02-16T08:49:40;100770.75;;;10.72;100.00
42591;BME280;28218;53.342;-6.216;2024-02-16T08:52:09;100783.59;;;10.75;100.00
42591;BME280;28218;53.342;-6.216;2024-02-16T08:54:37;100783.09;;;10.80;100.00
42591;BME280;28218;53.342;-6.216;2024-02-16T08:57:07;100794.44;;;10.80;100.00
42591;BME280;28218;53.342;-6.216;2024-02-16T08:59:37;100786.38;;;10.82;100.00
42591;BME280;28218;53.342;-6.216;2024-02-16T09:02:06;100786.53;;;10.88;100.00
42591;BME280;28218;53.342;-6.216;2024-02-16T09:04:34;100793.44;;;10.89;100.00
42591;BME280;28218;53.342;-6.216;2024-02-16T09:07:03;100799.22;;;10.93;100.00
42591;BME280;28218;53.342;-6.216;2024-02-16T09:09:32;100802.97;;;10.98;100.00
42591;BME280;28218;53.342;-6.216;2024-02-16T09:12:00;100805.81;;;10.97;100.00
42591;BME280;28218;53.342;-6.216;2024-02-16T09:14:30;100810.22;;;11.05;100.00
42591;BME280;28218;53.342;-6.216;2024-02-16T09:16:59;100811.50;;;11.17;100.00
42591;BME280;28218;53.342;-6.216;2024-02-16T09:19:28;100818.59;;;11.24;100.00
42591;BME280;28218;53.342;-6.216;2024-02-16T09:21:56;100815.91;;;11.33;100.00
42591;BME280;28218;53.342;-6.216;2024-02-16T09:24:25;100818.50;;;11.41;100.00
42591;BME280;28218;53.342;-6.216;2024-02-16T09:26:57;100817.19;;;11.45;100.00
42591;BME280;28218;53.342;-6.216;2024-02-16T09:29:27;100815.53;;;11.44;100.00
42591;BME280;28218;53.342;-6.216;2024-02-16T09:31:58;100834.31;;;11.49;100.00
42591;BME280;28218;53.342;-6.216;2024-02-16T09:34:27;100827.00;;;11.59;100.00
42591;BME280;28218;53.342;-6.216;2024-02-16T09:36:56;100837.69;;;11.66;100.00
42591;BME280;28218;53.342;-6.216;2024-02-16T09:39:24;100837.84;;;11.72;100.00
42591;BME280;28218;53.342;-6.216;2024-02-16T09:41:55;100837.63;;;11.90;100.00
42591;BME280;28218;53.342;-6.216;2024-02-16T09:44:23;100837.84;;;12.03;100.00
42591;BME280;28218;53.342;-6.216;2024-02-16T09:46:53;100841.25;;;12.12;100.00
42591;BME280;28218;53.342;-6.216;2024-02-16T09:49:23;100842.75;;;12.15;100.00
42591;BME280;28218;53.342;-6.216;2024-02-16T09:52:02;100848.63;;;12.25;100.00
42591;BME280;28218;53.342;-6.216;2024-02-16T09:54:32;100843.56;;;12.38;100.00
42591;BME280;28218;53.342;-6.216;2024-02-16T09:57:02;100847.78;;;12.47;100.00
42591;BME280;28218;53.342;-6.216;2024-02-16T09:59:31;100851.41;;;12.46;100.00
42591;BME280;28218;53.342;-6.216;2024-02-16T10:02:00;100848.13;;;12.44;100.00
42591;BME280;28218;53.342;-6.216;2024-02-16T10:04:30;100843.91;;;12.35;100.00
42591;BME280;28218;53.342;-6.216;2024-02-16T10:07:02;100851.88;;;12.27;100.00
42591;BME280;28218;53.342;-6.216;2024-02-16T10:09:39;100856.34;;;12.26;100.00
42591;BME280;28218;53.342;-6.216;2024-02-16T10:12:09;100856.19;;;12.28;100.00
42591;BME280;28218;53.342;-6.216;2024-02-16T10:14:38;100864.41;;;12.33;100.00
42591;BME280;28218;53.342;-6.216;2024-02-16T10:17:08;100870.44;;;12.42;100.00
42591;BME280;28218;53.342;-6.216;2024-02-16T10:19:38;100873.75;;;12.44;100.00
42591;BME280;28218;53.342;-6.216;2024-02-16T10:22:09;100883.59;;;12.50;100.00
42591;BME280;28218;53.342;-6.216;2024-02-16T10:24:40;100900.75;;;12.54;100.00
42591;BME280;28218;53.342;-6.216;2024-02-16T10:27:14;100896.59;;;12.60;100.00
42591;BME280;28218;53.342;-6.216;2024-02-16T10:29:44;100897.88;;;12.64;100.00
42591;BME280;28218;53.342;-6.216;2024-02-16T10:32:17;100903.44;;;12.69;100.00
42591;BME280;28218;53.342;-6.216;2024-02-16T10:34:47;100901.56;;;12.77;100.00
42591;BME280;28218;53.342;-6.216;2024-02-16T10:37:17;100912.91;;;12.86;100.00
42591;BME280;28218;53.342;-6.216;2024-02-16T10:39:46;100922.03;;;12.98;100.00
42591;BME280;28218;53.342;-6.216;2024-02-16T10:42:16;100917.75;;;12.97;100.00
42591;BME280;28218;53.342;-6.216;2024-02-16T10:44:47;100915.31;;;12.96;100.00
42591;BME280;28218;53.342;-6.216;2024-02-16T10:47:15;100919.97;;;12.94;100.00
42591;BME280;28218;53.342;-6.216;2024-02-16T10:49:44;100917.13;;;12.95;100.00
42591;BME280;28218;53.342;-6.216;2024-02-16T10:52:15;100920.69;;;13.02;100.00
42591;BME280;28218;53.342;-6.216;2024-02-16T10:54:45;100921.50;;;13.03;100.00
42591;BME280;28218;53.342;-6.216;2024-02-16T10:57:16;100932.13;;;13.18;100.00
42591;BME280;28218;53.342;-6.216;2024-02-16T10:59:44;100938.22;;;13.41;100.00
42591;BME280;28218;53.342;-6.216;2024-02-16T11:02:14;100954.00;;;13.49;100.00
42591;BME280;28218;53.342;-6.216;2024-02-16T11:04:46;100950.38;;;13.50;100.00
42591;BME280;28218;53.342;-6.216;2024-02-16T11:07:18;100957.31;;;13.51;100.00
42591;BME280;28218;53.342;-6.216;2024-02-16T11:09:47;100965.53;;;13.57;100.00
42591;BME280;28218;53.342;-6.216;2024-02-16T11:12:15;100967.97;;;13.58;100.00
42591;BME280;28218;53.342;-6.216;2024-02-16T11:14:45;100971.66;;;13.72;100.00
42591;BME280;28218;53.342;-6.216;2024-02-16T11:17:15;100978.75;;;13.86;100.00
42591;BME280;28218;53.342;-6.216;2024-02-16T11:19:48;100989.47;;;13.93;100.00
42591;BME280;28218;53.342;-6.216;2024-02-16T11:22:19;100993.28;;;13.90;100.00
42591;BME280;28218;53.342;-6.216;2024-02-16T11:24:48;100997.97;;;13.88;100.00
42591;BME280;28218;53.342;-6.216;2024-02-16T11:27:18;101001.78;;;13.86;100.00
42591;BME280;28218;53.342;-6.216;2024-02-16T11:29:48;101000.88;;;13.93;100.00
42591;BME280;28218;53.342;-6.216;2024-02-16T11:32:18;101013.03;;;14.02;100.00
42591;BME280;28218;53.342;-6.216;2024-02-16T11:34:47;101010.53;;;14.01;100.00
42591;BME280;28218;53.342;-6.216;2024-02-16T11:37:17;101024.72;;;13.93;100.00
42591;BME280;28218;53.342;-6.216;2024-02-16T11:39:46;101038.69;;;13.87;100.00
42591;BME280;28218;53.342;-6.216;2024-02-16T11:42:19;101046.28;;;13.90;100.00
42591;BME280;28218;53.342;-6.216;2024-02-16T11:44:52;101046.63;;;13.87;100.00
42591;BME280;28218;53.342;-6.216;2024-02-16T11:47:22;101070.03;;;13.84;100.00
42591;BME280;28218;53.342;-6.216;2024-02-16T11:50:03;101068.47;;;13.74;100.00
42591;BME280;28218;53.342;-6.216;2024-02-16T11:52:33;101077.78;;;13.85;100.00
42591;BME280;28218;53.342;-6.216;2024-02-16T11:55:02;101071.47;;;13.86;100.00
42591;BME280;28218;53.342;-6.216;2024-02-16T11:57:32;101084.91;;;13.85;100.00
42591;BME280;28218;53.342;-6.216;2024-02-16T12:00:01;101073.94;;;13.88;100.00
42591;BME280;28218;53.342;-6.216;2024-02-16T12:02:35;101077.13;;;13.83;100.00
42591;BME280;28218;53.342;-6.216;2024-02-16T12:05:04;101085.16;;;13.75;100.00
42591;BME280;28218;53.342;-6.216;2024-02-16T12:07:36;101089.72;;;13.66;100.00
42591;BME280;28218;53.342;-6.216;2024-02-16T12:10:08;101080.00;;;13.59;100.00
42591;BME280;28218;53.342;-6.216;2024-02-16T12:12:37;101095.25;;;13.57;100.00
42591;BME280;28218;53.342;-6.216;2024-02-16T12:15:07;101105.91;;;13.48;100.00
42591;BME280;28218;53.342;-6.216;2024-02-16T12:17:35;101109.22;;;13.50;100.00
42591;BME280;28218;53.342;-6.216;2024-02-16T12:20:11;101117.06;;;13.59;100.00
42591;BME280;28218;53.342;-6.216;2024-02-16T12:22:41;101120.22;;;13.77;100.00
42591;BME280;28218;53.342;-6.216;2024-02-16T12:25:10;101117.41;;;13.78;100.00
42591;BME280;28218;53.342;-6.216;2024-02-16T12:27:39;101127.00;;;13.79;100.00
42591;BME280;28218;53.342;-6.216;2024-02-16T12:30:08;101131.59;;;13.63;100.00
42591;BME280;28218;53.342;-6.216;2024-02-16T12:32:37;101135.53;;;13.67;100.00
42591;BME280;28218;53.342;-6.216;2024-02-16T12:35:07;101140.91;;;13.59;100.00
42591;BME280;28218;53.342;-6.216;2024-02-16T12:37:36;101139.25;;;13.58;100.00
42591;BME280;28218;53.342;-6.216;2024-02-16T12:40:08;101161.69;;;13.47;100.00